Time;durP1;ratioP1;P1;durP2;ratioP2;P2;SDS_P1;SDS_P2;PMS_P1;PMS_P2;Temp;Humidity;BMP_temperature;BMP_pressure;BME280_temperature;BME280_humidity;BME280_pressure;Samples;Min_cycle;Max_cycle;Signal;HPM_P1;HPM_P2
2022/12/04 00:00:12;;;;;;;28.40;13.05;;;3.10;88.40;;;;;;5006406;28;20045;-61
2022/12/04 00:02:38;;;;;;;25.20;12.05;;;3.10;88.40;;;;;;5004299;28;20053;-61
2022/12/04 00:05:08;;;;;;;26.23;12.88;;;3.10;88.40;;;;;;5013472;28;20030;-58
2022/12/04 00:07:34;;;;;;;27.88;12.80;;;3.10;88.20;;;;;;4996758;28;20038;-60
2022/12/04 00:10:00;;;;;;;30.63;12.82;;;3.10;88.20;;;;;;5012660;28;20038;-59
2022/12/04 00:12:25;;;;;;;25.05;11.80;;;3.10;88.20;;;;;;5005808;28;20065;-61
2022/12/04 00:14:51;;;;;;;29.38;12.88;;;3.10;88.20;;;;;;5009537;28;20034;-60
2022/12/04 00:17:17;;;;;;;25.25;12.35;;;3.10;88.40;;;;;;5008328;28;20029;-60
2022/12/04 00:19:42;;;;;;;26.33;13.25;;;3.10;88.40;;;;;;5006820;28;20044;-60
2022/12/04 00:22:08;;;;;;;27.05;12.85;;;3.10;88.50;;;;;;5004658;28;20550;-60
2022/12/04 00:24:34;;;;;;;28.60;12.70;;;3.10;88.40;;;;;;5005261;28;20038;-60
2022/12/04 00:26:59;;;;;;;25.65;12.13;;;3.10;88.40;;;;;;5015106;28;20440;-60
2022/12/04 00:29:25;;;;;;;27.52;12.32;;;3.10;88.40;;;;;;5005487;28;20550;-61
2022/12/04 00:31:51;;;;;;;24.45;11.48;;;3.10;88.30;;;;;;5005239;28;20640;-60
2022/12/04 00:34:16;;;;;;;23.75;11.95;;;3.20;88.30;;;;;;5003473;28;20041;-60
2022/12/04 00:36:42;;;;;;;25.85;12.05;;;3.10;88.10;;;;;;5005754;28;20318;-61
2022/12/04 00:39:08;;;;;;;23.08;11.00;;;3.20;88.10;;;;;;5007167;28;20042;-60
2022/12/04 00:41:34;;;;;;;26.70;11.93;;;3.20;88.10;;;;;;5011657;28;20041;-60
2022/12/04 00:44:00;;;;;;;24.00;11.90;;;3.10;88.00;;;;;;5008083;28;20052;-59
2022/12/04 00:46:26;;;;;;;24.35;11.38;;;3.10;88.00;;;;;;5007666;28;20022;-58
2022/12/04 00:48:53;;;;;;;23.73;11.35;;;3.10;88.20;;;;;;5009955;28;20034;-60
2022/12/04 00:51:21;;;;;;;23.75;11.15;;;3.00;88.20;;;;;;5007821;28;20038;-60
2022/12/04 00:53:47;;;;;;;22.92;11.23;;;3.00;88.20;;;;;;5007708;28;20080;-59
2022/12/04 00:56:19;;;;;;;22.95;11.25;;;3.10;88.40;;;;;;5010186;28;20037;-60
2022/12/04 00:58:45;;;;;;;21.05;11.10;;;3.00;88.40;;;;;;5011480;28;20065;-60
2022/12/04 01:01:14;;;;;;;29.13;11.50;;;3.00;88.40;;;;;;5015710;28;20038;-60
2022/12/04 01:03:40;;;;;;;23.67;11.05;;;3.00;88.40;;;;;;5010615;28;20037;-58
2022/12/04 01:06:07;;;;;;;24.42;11.25;;;3.00;88.40;;;;;;5010629;28;20041;-60
2022/12/04 01:08:33;;;;;;;24.02;11.40;;;3.10;88.40;;;;;;5011732;28;20435;-60
2022/12/04 01:10:59;;;;;;;26.85;12.55;;;3.10;88.50;;;;;;5010505;28;20207;-59
2022/12/04 01:13:25;;;;;;;24.83;12.13;;;3.10;88.40;;;;;;5010626;28;20061;-60
2022/12/04 01:15:51;;;;;;;24.13;11.35;;;3.10;88.50;;;;;;5014195;28;20030;-61
2022/12/04 01:18:17;;;;;;;24.77;11.55;;;3.10;88.50;;;;;;5013335;28;20376;-62
2022/12/04 01:20:47;;;;;;;24.35;11.55;;;3.10;88.60;;;;;;5007502;28;20129;-61
2022/12/04 01:23:13;;;;;;;24.45;11.77;;;3.10;88.60;;;;;;5009283;28;20034;-61
2022/12/04 01:25:38;;;;;;;24.40;11.82;;;3.10;88.50;;;;;;5007813;28;20040;-59
2022/12/04 01:28:04;;;;;;;29.45;11.30;;;3.10;88.60;;;;;;5009985;28;20080;-57
2022/12/04 01:30:30;;;;;;;26.38;12.30;;;3.10;88.50;;;;;;5007490;28;20040;-58
2022/12/04 01:32:55;;;;;;;28.83;12.18;;;3.10;88.40;;;;;;5008790;28;20139;-60
2022/12/04 01:35:21;;;;;;;25.73;11.63;;;3.10;88.40;;;;;;5008740;28;20064;-60
2022/12/04 01:37:46;;;;;;;24.75;11.68;;;3.10;88.40;;;;;;5008149;28;20037;-61
2022/12/04 01:40:14;;;;;;;26.27;12.70;;;3.20;88.40;;;;;;5015047;28;20033;-61
2022/12/04 01:42:40;;;;;;;25.83;12.48;;;3.10;88.40;;;;;;5012290;28;20110;-61
2022/12/04 01:45:28;;;;;;;21.63;11.20;;;3.20;88.40;;;;;;5011269;28;20112;-60
2022/12/04 01:47:56;;;;;;;22.73;11.15;;;3.20;88.60;;;;;;5012904;28;20067;-59
2022/12/04 01:50:23;;;;;;;33.30;12.32;;;3.20;88.50;;;;;;5014722;28;20120;-60
2022/12/04 01:52:49;;;;;;;26.35;12.23;;;3.20;88.60;;;;;;5008600;28;20042;-61
2022/12/04 01:55:14;;;;;;;40.03;12.38;;;3.10;88.40;;;;;;5012238;28;20096;-60
2022/12/04 01:57:41;;;;;;;28.02;12.30;;;3.10;88.40;;;;;;5010981;28;20041;-57
2022/12/04 02:00:10;;;;;;;29.77;11.43;;;3.10;88.30;;;;;;5014303;28;20073;-61
2022/12/04 02:02:38;;;;;;;27.70;11.82;;;3.10;88.20;;;;;;5010046;28;20049;-57
2022/12/04 02:05:07;;;;;;;39.22;12.70;;;3.10;88.30;;;;;;5011924;28;20117;-58
2022/12/04 02:07:32;;;;;;;36.88;12.18;;;3.10;88.30;;;;;;5008668;28;20029;-59
2022/12/04 02:10:02;;;;;;;26.83;10.90;;;3.10;88.20;;;;;;5007624;28;20044;-60
2022/12/04 02:12:55;;;;;;;26.10;11.30;;;3.10;88.30;;;;;;5007051;28;20346;-59
2022/12/04 02:15:40;;;;;;;24.27;10.38;;;3.10;88.40;;;;;;5006897;28;20041;-60
2022/12/04 02:18:28;;;;;;;26.35;12.68;;;3.00;88.40;;;;;;5009819;28;20547;-60
2022/12/04 02:21:02;;;;;;;29.00;12.00;;;3.00;88.40;;;;;;5007079;28;20033;-60
2022/12/04 02:23:48;;;;;;;27.55;11.70;;;3.00;88.50;;;;;;5005899;28;22276;-61
2022/12/04 02:26:39;;;;;;;32.30;12.60;;;3.00;88.60;;;;;;5007269;28;20064;-60
2022/12/04 02:29:18;;;;;;;23.67;11.90;;;3.00;88.70;;;;;;5009017;28;20509;-60
2022/12/04 02:31:58;;;;;;;25.27;12.18;;;3.00;88.60;;;;;;5004518;28;20041;-59
2022/12/04 02:34:28;;;;;;;25.60;12.18;;;3.00;88.90;;;;;;5011592;28;20034;-61
2022/12/04 02:37:05;;;;;;;26.05;12.60;;;2.90;88.90;;;;;;5018458;28;20026;-60
2022/12/04 02:39:45;;;;;;;29.55;11.30;;;2.90;89.10;;;;;;5015237;28;20489;-59
2022/12/04 02:42:38;;;;;;;21.75;10.88;;;2.90;89.10;;;;;;5015473;28;20053;-59
2022/12/04 02:45:30;;;;;;;24.35;11.88;;;2.90;89.10;;;;;;5015593;28;20030;-60
2022/12/04 02:47:58;;;;;;;23.33;11.27;;;2.90;89.30;;;;;;5014023;28;20037;-59
2022/12/04 02:50:26;;;;;;;27.80;11.88;;;3.00;89.20;;;;;;5012633;28;20041;-60
2022/12/04 02:53:22;;;;;;;23.40;11.52;;;3.00;89.20;;;;;;4992736;28;20046;-60
2022/12/04 02:55:53;;;;;;;25.73;11.45;;;3.00;89.30;;;;;;4993950;28;20034;-60
2022/12/04 02:58:29;;;;;;;32.80;12.77;;;3.00;89.10;;;;;;5012387;28;20500;-60
2022/12/04 03:00:58;;;;;;;26.63;11.93;;;3.00;89.10;;;;;;5011307;28;20034;-60
2022/12/04 03:03:27;;;;;;;27.65;11.93;;;3.00;89.80;;;;;;5011074;28;20188;-60
2022/12/04 03:06:04;;;;;;;23.33;10.63;;;3.00;88.90;;;;;;5008586;28;20061;-60
2022/12/04 03:08:38;;;;;;;23.35;11.00;;;3.00;88.90;;;;;;5010256;28;20512;-61
2022/12/04 03:11:04;;;;;;;26.95;11.95;;;3.00;88.90;;;;;;5015520;28;20040;-59
2022/12/04 03:13:46;;;;;;;19.05;10.38;;;3.00;88.80;;;;;;5013082;28;20103;-60
2022/12/04 03:16:38;;;;;;;27.08;11.23;;;3.00;88.70;;;;;;5015192;28;20100;-61
2022/12/04 03:19:09;;;;;;;21.63;11.13;;;3.00;88.80;;;;;;5006071;28;20037;-59
2022/12/04 03:21:39;;;;;;;22.65;10.88;;;3.00;88.70;;;;;;5015994;28;20062;-59
2022/12/04 03:24:21;;;;;;;26.67;12.45;;;3.00;88.80;;;;;;5016451;28;20025;-59
2022/12/04 03:26:54;;;;;;;23.33;11.98;;;3.00;88.90;;;;;;5015772;28;20065;-60
2022/12/04 03:29:32;;;;;;;23.98;11.15;;;3.00;88.90;;;;;;5017755;28;20038;-60
2022/12/04 03:32:08;;;;;;;24.27;11.50;;;3.00;89.00;;;;;;5016674;28;20046;-61
2022/12/04 03:34:57;;;;;;;24.23;11.20;;;3.00;89.00;;;;;;5016965;28;20052;-59
2022/12/04 03:37:59;;;;;;;26.67;11.38;;;3.00;89.00;;;;;;5016451;28;20592;-59
2022/12/04 03:40:35;;;;;;;25.15;11.60;;;3.00;89.10;;;;;;5001454;28;20041;-60
2022/12/04 03:43:19;;;;;;;22.00;11.15;;;3.00;89.00;;;;;;5015950;28;20034;-60
2022/12/04 03:45:53;;;;;;;22.95;10.52;;;3.00;89.00;;;;;;5012347;28;20121;-60
2022/12/04 03:48:25;;;;;;;24.25;11.15;;;3.00;88.90;;;;;;5013983;28;20390;-60
2022/12/04 03:50:59;;;;;;;26.98;11.93;;;3.00;89.00;;;;;;5014350;28;20041;-59
2022/12/04 03:53:49;;;;;;;23.85;11.32;;;3.10;89.10;;;;;;5009934;28;20038;-60
2022/12/04 03:56:19;;;;;;;22.10;11.18;;;3.10;89.10;;;;;;5011994;28;20401;-59
2022/12/04 03:58:59;;;;;;;22.83;11.13;;;3.10;89.10;;;;;;5013472;28;20095;-60
2022/12/04 04:01:31;;;;;;;23.13;11.15;;;3.10;89.20;;;;;;5008577;28;20045;-60
2022/12/04 04:03:59;;;;;;;21.23;11.18;;;3.10;89.10;;;;;;5011207;28;20052;-60
2022/12/04 04:06:37;;;;;;;21.90;10.85;;;3.10;88.90;;;;;;5005037;28;20033;-60
2022/12/04 04:09:12;;;;;;;23.08;11.55;;;3.10;89.00;;;;;;5010404;28;20179;-61
2022/12/04 04:12:08;;;;;;;22.90;11.50;;;3.20;89.00;;;;;;5003351;28;20512;-60
2022/12/04 04:26:04;;;;;;;24.35;10.63;;;3.10;89.40;;;;;;5008235;28;20073;-61
2022/12/04 04:28:33;;;;;;;19.80;10.48;;;3.10;88.70;;;;;;5013266;28;20025;-60
2022/12/04 04:31:23;;;;;;;20.00;10.20;;;3.10;88.90;;;;;;5009799;28;20034;-58
2022/12/04 04:33:51;;;;;;;24.83;11.38;;;3.10;88.90;;;;;;5010483;28;20049;-58
2022/12/04 04:36:39;;;;;;;26.35;11.85;;;3.10;88.90;;;;;;5018272;28;20041;-61
2022/12/04 04:39:30;;;;;;;26.65;12.38;;;3.20;88.90;;;;;;5016489;28;20116;-61
2022/12/04 04:42:08;;;;;;;25.65;11.45;;;3.20;88.90;;;;;;5016670;28;20033;-59
2022/12/04 04:44:33;;;;;;;33.65;12.75;;;3.20;88.90;;;;;;5018884;28;20026;-59
2022/12/04 04:47:03;;;;;;;26.05;11.80;;;3.20;88.90;;;;;;5018755;28;20044;-61
2022/12/04 04:49:32;;;;;;;24.42;11.43;;;3.20;88.90;;;;;;5016143;28;20271;-58
2022/12/04 04:52:00;;;;;;;27.98;12.15;;;3.20;88.90;;;;;;5009191;28;20041;-61
2022/12/04 04:54:28;;;;;;;23.67;11.55;;;3.20;88.90;;;;;;5007905;28;20033;-59
2022/12/04 04:56:54;;;;;;;25.00;12.73;;;3.20;88.90;;;;;;5009361;28;20084;-60
2022/12/04 04:59:19;;;;;;;30.40;13.02;;;3.20;88.90;;;;;;5009247;28;20031;-61
2022/12/04 05:01:46;;;;;;;20.85;10.85;;;3.20;88.80;;;;;;5015506;28;20041;-60
2022/12/04 05:04:12;;;;;;;24.25;10.93;;;3.20;88.70;;;;;;5012576;28;20041;-60
2022/12/04 05:06:38;;;;;;;21.60;10.43;;;3.20;88.70;;;;;;5017446;28;20033;-62
2022/12/04 05:09:03;;;;;;;22.40;11.00;;;3.20;88.70;;;;;;5009681;28;20072;-61
2022/12/04 05:11:29;;;;;;;22.52;10.32;;;3.20;88.80;;;;;;5013795;28;20568;-61
2022/12/04 05:13:55;;;;;;;22.83;10.60;;;3.20;89.60;;;;;;5013975;28;20113;-61
2022/12/04 05:16:21;;;;;;;24.42;11.27;;;3.20;88.70;;;;;;5014454;28;20460;-60
2022/12/04 05:21:32;;;;;;;32.63;11.97;;;3.20;88.60;;;;;;5012074;28;20099;-60
2022/12/04 05:23:57;;;;;;;25.85;11.27;;;3.30;88.70;;;;;;5007570;28;20288;-61
2022/12/04 05:26:23;;;;;;;25.50;11.98;;;3.20;88.60;;;;;;5010112;28;20033;-61
2022/12/04 05:28:49;;;;;;;34.17;11.48;;;3.20;88.60;;;;;;5006598;28;20048;-60
2022/12/04 05:31:15;;;;;;;33.65;11.65;;;3.20;88.60;;;;;;5009968;28;20781;-59
2022/12/04 05:33:40;;;;;;;24.80;11.52;;;3.20;88.60;;;;;;5008014;28;20505;-58
2022/12/04 05:36:08;;;;;;;26.05;11.25;;;3.20;88.60;;;;;;5010444;28;20073;-59
2022/12/04 05:38:34;;;;;;;23.25;11.15;;;3.20;88.60;;;;;;5007237;28;20038;-60
2022/12/04 05:41:02;;;;;;;28.35;12.32;;;3.20;88.60;;;;;;5009513;28;20061;-59
2022/12/04 05:43:28;;;;;;;23.58;11.15;;;3.20;88.60;;;;;;5005649;28;20063;-61
2022/12/04 05:45:53;;;;;;;24.98;11.32;;;3.20;88.70;;;;;;5008064;28;20502;-61
2022/12/04 05:48:19;;;;;;;24.92;11.90;;;3.20;88.70;;;;;;5012999;28;20501;-60
2022/12/04 05:50:44;;;;;;;27.85;11.63;;;3.20;88.90;;;;;;5014025;28;20029;-60
2022/12/04 05:53:10;;;;;;;35.42;12.18;;;3.20;89.00;;;;;;5010043;28;20045;-58
2022/12/04 05:55:36;;;;;;;54.42;14.30;;;3.20;89.00;;;;;;5011905;28;20060;-60
2022/12/04 05:58:03;;;;;;;36.33;14.70;;;3.20;88.90;;;;;;5011650;28;20156;-58
2022/12/04 06:00:30;;;;;;;50.90;14.40;;;3.20;88.80;;;;;;5007722;28;20064;-59
2022/12/04 06:02:56;;;;;;;36.35;13.43;;;3.10;88.70;;;;;;5011984;28;20096;-59
2022/12/04 06:05:22;;;;;;;30.80;13.02;;;3.10;88.70;;;;;;5014193;28;20042;-59
2022/12/04 06:07:47;;;;;;;30.90;12.77;;;3.10;88.80;;;;;;5008655;28;20144;-61
2022/12/04 06:10:13;;;;;;;48.50;14.25;;;3.10;88.90;;;;;;5009769;28;20038;-60
2022/12/04 06:12:38;;;;;;;27.75;12.57;;;3.00;88.90;;;;;;5007411;28;20069;-58
2022/12/04 06:15:04;;;;;;;28.67;12.63;;;3.00;88.90;;;;;;5009679;28;20030;-59
2022/12/04 06:17:30;;;;;;;28.65;12.48;;;3.00;89.10;;;;;;5015801;28;20034;-61
2022/12/04 06:19:56;;;;;;;35.78;13.77;;;3.00;89.40;;;;;;5010205;28;20042;-60
2022/12/04 06:22:21;;;;;;;26.40;12.95;;;3.00;89.50;;;;;;5010526;28;20034;-60
2022/12/04 06:24:47;;;;;;;27.77;12.45;;;3.00;89.40;;;;;;5012159;28;20598;-59
2022/12/04 06:27:13;;;;;;;28.52;12.43;;;3.00;89.40;;;;;;5010988;28;20049;-61
2022/12/04 06:29:38;;;;;;;28.30;12.38;;;3.00;89.50;;;;;;5008463;28;20041;-59
2022/12/04 06:32:04;;;;;;;39.90;12.95;;;3.00;89.40;;;;;;5007037;28;20053;-61
2022/12/04 06:34:30;;;;;;;25.90;12.43;;;3.00;89.40;;;;;;5008728;28;20046;-59
2022/12/04 06:36:55;;;;;;;33.33;12.88;;;3.00;89.50;;;;;;5012055;28;20038;-59
2022/12/04 06:39:21;;;;;;;34.58;12.93;;;3.10;89.60;;;;;;5005013;28;20037;-59
2022/12/04 06:41:47;;;;;;;29.50;12.70;;;3.10;89.60;;;;;;5009309;28;20038;-60
2022/12/04 06:44:14;;;;;;;22.95;11.40;;;3.10;89.60;;;;;;5002729;28;20123;-62
2022/12/04 06:46:40;;;;;;;25.08;11.52;;;3.20;89.60;;;;;;5010651;28;20501;-61
2022/12/04 06:49:05;;;;;;;26.52;12.32;;;3.20;89.50;;;;;;5007665;28;20313;-60
2022/12/04 06:51:34;;;;;;;24.60;11.68;;;3.20;89.40;;;;;;5010830;28;20068;-60
2022/12/04 06:54:00;;;;;;;26.13;12.38;;;3.20;89.40;;;;;;5005485;28;20120;-60
2022/12/04 06:56:28;;;;;;;26.83;12.55;;;3.20;89.30;;;;;;5012919;28;20124;-60
2022/12/04 06:58:56;;;;;;;27.23;12.23;;;3.20;89.20;;;;;;5011269;28;20066;-59
2022/12/04 07:01:29;;;;;;;23.63;12.02;;;3.20;89.10;;;;;;5010200;28;20501;-59
2022/12/04 07:03:55;;;;;;;26.38;11.88;;;3.20;89.10;;;;;;5009914;28;20099;-60
2022/12/04 07:06:24;;;;;;;23.45;11.35;;;3.30;89.10;;;;;;5011235;28;21303;-61
2022/12/04 07:08:53;;;;;;;24.38;12.02;;;3.30;89.20;;;;;;5013768;28;20057;-60
2022/12/04 07:11:20;;;;;;;25.95;11.85;;;3.30;89.20;;;;;;5010165;28;20055;-60
2022/12/04 07:13:46;;;;;;;25.10;11.68;;;3.30;89.10;;;;;;5010188;28;20095;-60
2022/12/04 07:16:13;;;;;;;23.05;11.35;;;3.30;89.00;;;;;;5008607;28;20060;-61
2022/12/04 07:18:42;;;;;;;23.20;11.55;;;3.30;88.90;;;;;;5010214;28;20124;-59
2022/12/04 07:21:12;;;;;;;23.10;11.75;;;3.30;88.80;;;;;;5008787;28;20123;-59
2022/12/04 07:23:38;;;;;;;24.13;11.63;;;3.30;88.80;;;;;;5009028;28;20050;-58
2022/12/04 07:26:09;;;;;;;25.20;11.35;;;3.30;88.80;;;;;;5005184;28;20053;-60
2022/12/04 07:28:35;;;;;;;29.38;11.60;;;3.20;88.70;;;;;;5006671;28;20048;-60
2022/12/04 07:31:09;;;;;;;22.23;11.10;;;3.30;88.90;;;;;;5002710;28;20037;-60
2022/12/04 07:33:35;;;;;;;22.15;11.10;;;3.30;88.90;;;;;;5008996;28;20547;-60
2022/12/04 07:36:03;;;;;;;22.73;11.27;;;3.20;88.80;;;;;;5003034;28;20045;-60
2022/12/04 07:38:30;;;;;;;29.55;12.20;;;3.30;88.90;;;;;;5006899;28;20115;-60
2022/12/04 07:40:59;;;;;;;26.80;11.93;;;3.30;89.00;;;;;;5007187;28;20051;-60
2022/12/04 07:43:26;;;;;;;24.38;10.93;;;3.20;89.00;;;;;;5008873;28;20045;-58
2022/12/04 07:45:52;;;;;;;25.98;11.43;;;3.30;89.10;;;;;;5005854;28;20509;-59
2022/12/04 07:48:17;;;;;;;25.80;12.05;;;3.30;89.10;;;;;;5007537;28;20041;-61
2022/12/04 07:50:43;;;;;;;30.70;11.90;;;3.30;89.10;;;;;;5005317;28;20037;-60
2022/12/04 07:53:09;;;;;;;37.40;13.45;;;3.30;89.10;;;;;;5006571;28;20128;-60
2022/12/04 07:55:34;;;;;;;27.65;13.02;;;3.30;89.00;;;;;;5013696;28;20038;-61
2022/12/04 07:58:00;;;;;;;37.40;13.23;;;3.30;89.00;;;;;;5007304;28;20116;-61
2022/12/04 08:00:26;;;;;;;27.10;13.00;;;3.30;89.00;;;;;;5010372;28;20080;-60
2022/12/04 08:02:51;;;;;;;40.78;12.45;;;3.30;89.10;;;;;;5002046;28;20041;-59
2022/12/04 08:05:17;;;;;;;40.70;11.70;;;3.30;89.00;;;;;;5006503;28;20057;-59
2022/12/04 08:07:43;;;;;;;31.00;11.82;;;3.30;89.00;;;;;;5003639;28;20038;-59
2022/12/04 08:10:09;;;;;;;25.65;12.00;;;3.30;89.00;;;;;;5010165;28;20041;-60
2022/12/04 08:12:34;;;;;;;38.55;12.40;;;3.30;89.10;;;;;;5001375;28;20454;-60
2022/12/04 08:15:00;;;;;;;23.75;11.45;;;3.30;89.10;;;;;;5009035;28;20033;-59
2022/12/04 08:17:26;;;;;;;25.35;12.85;;;3.30;89.10;;;;;;5003547;28;20371;-61
2022/12/04 08:19:52;;;;;;;31.23;12.05;;;3.30;89.10;;;;;;5005479;28;20064;-60
2022/12/04 08:22:17;;;;;;;27.98;11.98;;;3.30;89.30;;;;;;5004519;28;20042;-59
2022/12/04 08:24:43;;;;;;;34.30;11.65;;;3.30;89.30;;;;;;5007922;28;20079;-60
2022/12/04 08:27:08;;;;;;;41.83;11.73;;;3.40;89.30;;;;;;5014155;28;20071;-61
2022/12/04 08:29:34;;;;;;;34.15;12.13;;;3.40;89.10;;;;;;5007317;28;20038;-59
2022/12/04 08:32:00;;;;;;;27.40;11.98;;;3.40;89.10;;;;;;5006280;28;20586;-61
2022/12/04 08:34:25;;;;;;;34.28;12.02;;;3.40;89.10;;;;;;5011279;28;20042;-59
2022/12/04 08:36:52;;;;;;;29.17;12.60;;;3.40;89.20;;;;;;5016634;28;20561;-60
2022/12/04 08:39:18;;;;;;;51.67;13.90;;;3.40;89.10;;;;;;5015601;28;20142;-60
2022/12/04 08:41:43;;;;;;;56.70;12.60;;;3.40;89.20;;;;;;5009798;28;20029;-61
2022/12/04 08:44:09;;;;;;;25.77;12.05;;;3.40;89.10;;;;;;5003079;28;20130;-61
2022/12/04 08:46:34;;;;;;;65.65;12.70;;;3.40;89.00;;;;;;5000765;28;22712;-60
2022/12/04 08:49:00;;;;;;;27.02;12.60;;;3.40;89.90;;;;;;4997104;28;20057;-59
2022/12/04 08:51:29;;;;;;;25.33;12.02;;;3.30;88.90;;;;;;4997751;28;20462;-61
2022/12/04 08:54:00;;;;;;;29.98;12.75;;;3.30;89.10;;;;;;5002611;28;20049;-59
2022/12/04 08:56:28;;;;;;;25.42;12.18;;;3.30;89.50;;;;;;5005226;28;20043;-61
2022/12/04 08:58:55;;;;;;;36.50;13.95;;;3.30;89.70;;;;;;5008912;28;20034;-61
2022/12/04 09:01:20;;;;;;;22.67;12.13;;;3.30;89.70;;;;;;5008661;28;20041;-60
2022/12/04 09:03:46;;;;;;;24.13;12.15;;;3.30;89.60;;;;;;5010124;28;20030;-61
2022/12/04 09:06:13;;;;;;;22.23;11.80;;;3.30;89.70;;;;;;5008722;28;20042;-61
2022/12/04 09:08:39;;;;;;;29.23;11.80;;;3.30;89.90;;;;;;5005715;28;20042;-60
2022/12/04 09:11:07;;;;;;;26.15;11.85;;;3.30;90.00;;;;;;5008068;28;20030;-60
2022/12/04 09:13:33;;;;;;;31.23;12.23;;;3.30;89.80;;;;;;5004360;28;20461;-59
2022/12/04 09:16:01;;;;;;;26.67;12.80;;;3.40;89.80;;;;;;5009247;28;20029;-60
2022/12/04 09:18:27;;;;;;;23.52;11.18;;;3.40;89.80;;;;;;5005956;28;20203;-60
2022/12/04 09:20:57;;;;;;;24.58;11.68;;;3.40;89.80;;;;;;5008157;28;20147;-60
2022/12/04 09:23:24;;;;;;;27.00;11.57;;;3.40;89.90;;;;;;5009848;28;20064;-61
2022/12/04 09:25:50;;;;;;;22.88;11.05;;;3.50;89.90;;;;;;5009387;28;21207;-60
2022/12/04 09:28:15;;;;;;;25.83;11.27;;;3.50;89.90;;;;;;5010725;28;20549;-59
2022/12/04 09:30:41;;;;;;;25.45;11.32;;;3.50;89.90;;;;;;5011288;28;20061;-59
2022/12/04 09:33:06;;;;;;;26.38;11.10;;;3.50;89.80;;;;;;5011440;28;20425;-59
2022/12/04 09:35:33;;;;;;;27.13;11.80;;;3.50;89.90;;;;;;5016560;28;20061;-61
2022/12/04 09:37:58;;;;;;;22.30;11.35;;;3.50;89.90;;;;;;5016602;28;20069;-59
2022/12/04 09:40:28;;;;;;;24.55;11.60;;;3.50;89.80;;;;;;5014785;28;20053;-60
2022/12/04 09:43:28;;;;;;;29.33;12.07;;;3.60;89.80;;;;;;5008411;28;20460;-60
2022/12/04 09:46:01;;;;;;;27.38;11.77;;;3.60;90.00;;;;;;5009349;28;20034;-59
2022/12/04 09:48:33;;;;;;;27.30;12.38;;;3.60;89.80;;;;;;5013179;28;20041;-59
2022/12/04 09:51:00;;;;;;;22.25;11.10;;;3.60;89.80;;;;;;5015683;28;20041;-59
2022/12/04 09:53:33;;;;;;;23.23;11.50;;;3.60;90.30;;;;;;5016745;28;20052;-62
2022/12/04 09:56:18;;;;;;;26.00;11.98;;;3.60;89.80;;;;;;5012311;28;20069;-60
2022/12/04 09:58:56;;;;;;;23.48;11.25;;;3.60;89.90;;;;;;5016156;28;20045;-58
2022/12/04 10:01:26;;;;;;;23.45;11.57;;;3.60;89.90;;;;;;5014000;28;20042;-60
2022/12/04 10:03:53;;;;;;;26.25;12.27;;;3.70;89.90;;;;;;5015129;28;20034;-59
2022/12/04 10:06:25;;;;;;;24.48;12.05;;;3.70;90.30;;;;;;5017066;28;20574;-61
2022/12/04 10:09:04;;;;;;;23.65;12.32;;;3.70;89.90;;;;;;5011996;28;20075;-59
2022/12/04 10:11:54;;;;;;;25.70;11.18;;;3.70;89.80;;;;;;5015804;28;20040;-59
2022/12/04 10:14:51;;;;;;;21.85;10.50;;;3.70;89.80;;;;;;4993608;28;20034;-59
2022/12/04 10:17:31;;;;;;;20.33;10.10;;;3.80;89.70;;;;;;5013937;28;20069;-61
2022/12/04 10:20:41;;;;;;;20.08;11.00;;;3.70;89.60;;;;;;5012607;28;20598;-60
2022/12/04 10:23:28;;;;;;;21.48;10.52;;;3.80;89.70;;;;;;5017556;28;20033;-61
2022/12/04 10:25:54;;;;;;;21.25;10.55;;;3.70;89.50;;;;;;5018925;28;20034;-59
2022/12/04 10:28:32;;;;;;;20.67;10.30;;;3.70;89.40;;;;;;5013645;28;20099;-58
2022/12/04 10:31:01;;;;;;;20.25;10.57;;;3.70;89.50;;;;;;5015047;28;20045;-59
2022/12/04 10:33:34;;;;;;;22.45;11.32;;;3.70;89.50;;;;;;5017662;28;20056;-60
2022/12/04 10:36:00;;;;;;;22.75;10.55;;;3.70;89.60;;;;;;5012942;28;20046;-59
2022/12/04 10:38:46;;;;;;;26.50;12.25;;;3.70;89.70;;;;;;5014619;28;20096;-60
2022/12/04 10:41:22;;;;;;;25.92;12.25;;;3.80;89.70;;;;;;5005365;28;20041;-61
2022/12/04 10:43:49;;;;;;;22.45;11.57;;;3.80;89.80;;;;;;5014949;28;20041;-60
2022/12/04 10:46:17;;;;;;;23.85;11.48;;;3.70;89.80;;;;;;5016252;28;20034;-58
2022/12/04 10:48:48;;;;;;;21.58;10.73;;;3.80;90.00;;;;;;5014241;28;20041;-59
2022/12/04 10:51:18;;;;;;;23.55;12.43;;;3.80;90.00;;;;;;5014458;28;20037;-59
2022/12/04 10:53:48;;;;;;;23.27;11.05;;;3.80;90.00;;;;;;5016229;28;20038;-60
2022/12/04 10:56:16;;;;;;;19.48;10.23;;;3.90;90.00;;;;;;5015453;28;20382;-58
2022/12/04 10:58:43;;;;;;;19.55;10.45;;;3.90;90.00;;;;;;5015939;28;20037;-60
2022/12/04 11:01:14;;;;;;;21.05;9.90;;;3.90;89.80;;;;;;5013299;28;20034;-60
2022/12/04 11:03:43;;;;;;;21.00;10.80;;;3.90;89.70;;;;;;5015850;28;20060;-59
2022/12/04 11:06:09;;;;;;;22.15;10.82;;;4.00;89.60;;;;;;5013141;28;20417;-61
2022/12/04 11:08:40;;;;;;;20.02;10.25;;;4.00;89.40;;;;;;5015321;28;20053;-60
2022/12/04 11:11:10;;;;;;;20.58;10.55;;;4.00;89.30;;;;;;5014125;28;20034;-59
2022/12/04 11:13:35;;;;;;;20.58;10.55;;;4.00;89.40;;;;;;5017601;28;20070;-59
2022/12/04 11:16:01;;;;;;;22.05;12.45;;;4.00;89.40;;;;;;5012996;28;20480;-58
2022/12/04 11:18:31;;;;;;;22.67;11.90;;;4.00;89.60;;;;;;5013728;28;20717;-60
2022/12/04 11:21:06;;;;;;;22.50;10.63;;;4.00;89.60;;;;;;5015008;28;20038;-59
2022/12/04 11:23:45;;;;;;;21.73;11.23;;;4.00;90.10;;;;;;5013101;28;20344;-60
2022/12/04 11:26:11;;;;;;;22.88;11.85;;;4.00;89.60;;;;;;5016316;28;20080;-60
2022/12/04 11:28:39;;;;;;;21.52;11.25;;;4.10;89.70;;;;;;5014837;28;20120;-61
2022/12/04 11:31:07;;;;;;;21.90;11.05;;;4.10;89.70;;;;;;5014234;28;20452;-61
2022/12/04 11:33:39;;;;;;;26.08;12.65;;;4.10;89.60;;;;;;5014449;28;20127;-60
2022/12/04 11:36:35;;;;;;;26.63;12.15;;;4.10;89.60;;;;;;5013962;28;20034;-59
2022/12/04 11:39:03;;;;;;;21.85;11.45;;;4.20;89.20;;;;;;5007268;28;20041;-59
2022/12/04 11:41:30;;;;;;;23.27;11.77;;;4.20;89.10;;;;;;5014824;28;20088;-61
2022/12/04 11:43:57;;;;;;;25.75;12.82;;;4.20;89.20;;;;;;5016933;28;20034;-61
2022/12/04 11:46:29;;;;;;;27.52;13.75;;;4.20;89.20;;;;;;5016329;28;20042;-60
2022/12/04 11:48:54;;;;;;;27.05;13.10;;;4.10;89.10;;;;;;5014202;28;20124;-59
2022/12/04 11:51:35;;;;;;;26.17;13.13;;;4.10;89.00;;;;;;5016529;28;20148;-59
2022/12/04 11:54:24;;;;;;;27.20;12.38;;;4.10;89.00;;;;;;5014318;28;20037;-60
2022/12/04 11:57:15;;;;;;;24.63;11.57;;;4.10;89.30;;;;;;5012980;28;20042;-60
2022/12/04 12:00:07;;;;;;;21.70;11.10;;;4.10;89.40;;;;;;5016188;28;20037;-58
2022/12/04 12:03:11;;;;;;;23.85;11.40;;;4.10;89.60;;;;;;5009980;28;20458;-61
2022/12/04 12:05:58;;;;;;;21.58;10.85;;;4.10;89.60;;;;;;5015207;28;20087;-61
2022/12/04 12:08:29;;;;;;;23.45;11.45;;;4.20;89.60;;;;;;5011699;28;20176;-59
2022/12/04 12:11:15;;;;;;;23.38;11.30;;;4.20;89.40;;;;;;5012583;28;20135;-59
2022/12/04 12:13:59;;;;;;;22.75;12.02;;;4.20;89.30;;;;;;5009970;28;20045;-60
2022/12/04 12:16:52;;;;;;;26.25;12.50;;;4.20;89.30;;;;;;5012342;28;20033;-59
2022/12/04 12:19:27;;;;;;;27.23;13.27;;;4.20;89.40;;;;;;5008439;28;20587;-60
2022/12/04 12:22:20;;;;;;;25.65;12.15;;;4.20;90.10;;;;;;5012198;28;20047;-59
2022/12/04 12:25:01;;;;;;;20.90;10.48;;;4.20;89.40;;;;;;5011674;28;20208;-60
2022/12/04 12:28:11;;;;;;;21.17;10.55;;;4.20;89.40;;;;;;5013213;28;20083;-60
2022/12/04 12:31:07;;;;;;;23.02;10.65;;;4.20;89.30;;;;;;5011858;28;20038;-60
2022/12/04 12:33:45;;;;;;;19.70;10.45;;;4.30;88.80;;;;;;5010860;28;20042;-59
2022/12/04 12:36:13;;;;;;;21.52;10.32;;;4.20;88.50;;;;;;5011154;28;20095;-59
2022/12/04 12:39:02;;;;;;;21.70;10.85;;;4.20;88.60;;;;;;5015128;28;20049;-60
2022/12/04 12:41:38;;;;;;;22.05;11.10;;;4.20;88.90;;;;;;5007048;28;20057;-59
2022/12/04 12:44:15;;;;;;;19.75;10.15;;;4.10;89.10;;;;;;5011668;28;20064;-60
2022/12/04 12:46:50;;;;;;;26.58;12.38;;;4.10;89.20;;;;;;5009641;28;20037;-60
2022/12/04 12:49:40;;;;;;;23.08;11.07;;;4.10;89.30;;;;;;5007267;28;20095;-58
2022/12/04 12:52:48;;;;;;;25.90;13.25;;;4.20;89.40;;;;;;5011165;28;20073;-59
2022/12/04 12:55:16;;;;;;;27.60;13.20;;;4.20;89.50;;;;;;5009776;28;20267;-60
2022/12/04 12:57:57;;;;;;;25.80;12.60;;;4.20;89.50;;;;;;5012949;28;20129;-61
2022/12/04 13:00:24;;;;;;;25.58;13.75;;;4.30;89.60;;;;;;5014134;28;20044;-58
2022/12/04 13:03:01;;;;;;;23.98;11.55;;;4.30;89.50;;;;;;5013394;28;20448;-60
2022/12/04 13:05:39;;;;;;;24.02;12.60;;;4.30;89.40;;;;;;5013501;28;20042;-60
2022/12/04 13:08:14;;;;;;;27.80;13.32;;;4.40;89.40;;;;;;5011656;28;20036;-60
2022/12/04 13:10:45;;;;;;;25.25;11.98;;;4.40;89.30;;;;;;5012756;28;20606;-60